Terminal Aerodrome Forecast
Issued by NWS

Home | Current Version | Previous Version | Text Only | Print | Product List | Glossary On
Versions: 1 2 3 4 5 6 7 8 9 10 11 12 13 14 15
000
FTAK31 PAJN 101700 RRA
TAFAPG
TAF
PAPG 101741Z 1018/1118 06005KT P6SM SCT015 BKN040
     FM102200 06006KT P6SM SCT040
     FM110600 22004KT P6SM FEW005 BKN250
      AMD LTD TO CLD VIS AND WIND 1106/1115=

USA.gov is the U.S. government's official web portal to all federal, state and local government web resources and services.